Fisk, Missouri
Current Conditions -  °F | °C
As of 9:53 PM on Wednesday 26 Nov 2014 (Local Time) from KPOF Reporting Station
Overcast Overcast  
Wind Chill: 33°   Ceiling: 8000
Heat Index: 38°   Visibility: 10mi
Dew Point: 32°   Wind: 6mph
Humidity: 79%   Direction: 260°W
Pressure: 30.13"   Gusts: NA
Location:  36.78°N, 90.21°W
Report Text: KPOF 270353Z AUTO 26005KT 10SM SCT040 OVC080 03/00 A3013 RMK AO2 SLP210 T00330000
Loading
Personal Weather Stations






























Interactive Weather Map New forecast layout! Learn more

10-Day Weather Forecast

Advertisements
Track Severe Weather on mobile